sensor_id;sensor_type;location;lat;lon;timestamp;temperature;humidity
12819;DHT22;6474;53.474;9.894;2024-01-15T00:00:12;1.90;95.40
12819;DHT22;6474;53.474;9.894;2024-01-15T00:02:42;1.80;95.30
12819;DHT22;6474;53.474;9.894;2024-01-15T00:05:10;1.80;95.40
12819;DHT22;6474;53.474;9.894;2024-01-15T00:07:37;1.90;95.50
12819;DHT22;6474;53.474;9.894;2024-01-15T00:10:06;1.90;95.60
12819;DHT22;6474;53.474;9.894;2024-01-15T00:12:34;2.00;95.70
12819;DHT22;6474;53.474;9.894;2024-01-15T00:15:05;2.00;95.70
12819;DHT22;6474;53.474;9.894;2024-01-15T00:17:33;2.00;95.70
12819;DHT22;6474;53.474;9.894;2024-01-15T00:20:07;2.10;95.60
12819;DHT22;6474;53.474;9.894;2024-01-15T00:22:35;2.10;95.70
12819;DHT22;6474;53.474;9.894;2024-01-15T00:25:03;2.10;95.60
12819;DHT22;6474;53.474;9.894;2024-01-15T00:27:32;2.10;95.60
12819;DHT22;6474;53.474;9.894;2024-01-15T00:30:00;2.10;95.60
12819;DHT22;6474;53.474;9.894;2024-01-15T00:32:28;2.10;95.60
12819;DHT22;6474;53.474;9.894;2024-01-15T00:34:56;2.10;95.60
12819;DHT22;6474;53.474;9.894;2024-01-15T00:37:26;2.10;95.60
12819;DHT22;6474;53.474;9.894;2024-01-15T00:39:54;2.10;95.60
12819;DHT22;6474;53.474;9.894;2024-01-15T00:42:22;2.10;95.50
12819;DHT22;6474;53.474;9.894;2024-01-15T00:44:49;2.10;95.50
12819;DHT22;6474;53.474;9.894;2024-01-15T00:47:18;2.10;95.50
12819;DHT22;6474;53.474;9.894;2024-01-15T00:49:46;2.00;95.50
12819;DHT22;6474;53.474;9.894;2024-01-15T00:52:14;2.00;95.50
12819;DHT22;6474;53.474;9.894;2024-01-15T00:54:46;2.00;95.50
12819;DHT22;6474;53.474;9.894;2024-01-15T00:57:14;2.00;95.50
12819;DHT22;6474;53.474;9.894;2024-01-15T00:59:42;2.00;95.50
12819;DHT22;6474;53.474;9.894;2024-01-15T01:02:10;2.10;95.60
12819;DHT22;6474;53.474;9.894;2024-01-15T01:04:38;2.00;95.60
12819;DHT22;6474;53.474;9.894;2024-01-15T01:07:09;2.10;95.60
12819;DHT22;6474;53.474;9.894;2024-01-15T01:09:37;2.10;95.60
12819;DHT22;6474;53.474;9.894;2024-01-15T01:12:06;2.10;96.00
12819;DHT22;6474;53.474;9.894;2024-01-15T01:14:34;2.10;95.60
12819;DHT22;6474;53.474;9.894;2024-01-15T01:17:02;2.10;95.80
12819;DHT22;6474;53.474;9.894;2024-01-15T01:19:31;2.10;95.70
12819;DHT22;6474;53.474;9.894;2024-01-15T01:21:59;2.10;95.40
12819;DHT22;6474;53.474;9.894;2024-01-15T01:24:27;2.10;95.50
12819;DHT22;6474;53.474;9.894;2024-01-15T01:26:55;2.10;95.60
12819;DHT22;6474;53.474;9.894;2024-01-15T01:29:24;2.10;95.60
12819;DHT22;6474;53.474;9.894;2024-01-15T01:31:53;2.20;95.70
12819;DHT22;6474;53.474;9.894;2024-01-15T01:34:21;2.20;95.70
12819;DHT22;6474;53.474;9.894;2024-01-15T01:36:49;2.20;95.70
12819;DHT22;6474;53.474;9.894;2024-01-15T01:39:17;2.20;95.70
12819;DHT22;6474;53.474;9.894;2024-01-15T01:41:48;2.20;95.60
12819;DHT22;6474;53.474;9.894;2024-01-15T01:44:16;2.20;95.50
12819;DHT22;6474;53.474;9.894;2024-01-15T01:46:45;2.20;95.50
12819;DHT22;6474;53.474;9.894;2024-01-15T01:49:13;2.20;95.40
12819;DHT22;6474;53.474;9.894;2024-01-15T01:51:41;2.20;95.40
12819;DHT22;6474;53.474;9.894;2024-01-15T01:54:10;2.10;95.50
12819;DHT22;6474;53.474;9.894;2024-01-15T01:56:40;2.10;95.40
12819;DHT22;6474;53.474;9.894;2024-01-15T01:59:09;2.10;95.30
12819;DHT22;6474;53.474;9.894;2024-01-15T02:01:38;2.00;95.20
12819;DHT22;6474;53.474;9.894;2024-01-15T02:04:08;2.00;95.20
12819;DHT22;6474;53.474;9.894;2024-01-15T02:06:37;2.00;95.30
12819;DHT22;6474;53.474;9.894;2024-01-15T02:09:05;2.00;95.40
12819;DHT22;6474;53.474;9.894;2024-01-15T02:11:33;2.00;95.40
12819;DHT22;6474;53.474;9.894;2024-01-15T02:14:01;2.00;95.30
12819;DHT22;6474;53.474;9.894;2024-01-15T02:16:29;1.90;95.20
12819;DHT22;6474;53.474;9.894;2024-01-15T02:18:57;1.90;95.20
12819;DHT22;6474;53.474;9.894;2024-01-15T02:21:26;1.90;95.20
12819;DHT22;6474;53.474;9.894;2024-01-15T02:23:57;1.90;95.30
12819;DHT22;6474;53.474;9.894;2024-01-15T02:26:25;1.90;95.30
12819;DHT22;6474;53.474;9.894;2024-01-15T02:28:54;1.90;95.30
12819;DHT22;6474;53.474;9.894;2024-01-15T02:31:21;1.90;95.20
12819;DHT22;6474;53.474;9.894;2024-01-15T02:33:50;1.90;95.20
12819;DHT22;6474;53.474;9.894;2024-01-15T02:36:18;1.90;95.10
12819;DHT22;6474;53.474;9.894;2024-01-15T02:38:46;1.90;95.10
12819;DHT22;6474;53.474;9.894;2024-01-15T02:41:15;1.90;95.00
12819;DHT22;6474;53.474;9.894;2024-01-15T02:43:43;1.80;95.10
12819;DHT22;6474;53.474;9.894;2024-01-15T02:46:11;1.90;95.20
12819;DHT22;6474;53.474;9.894;2024-01-15T02:48:39;1.90;95.30
12819;DHT22;6474;53.474;9.894;2024-01-15T02:51:07;2.00;95.40
12819;DHT22;6474;53.474;9.894;2024-01-15T02:53:36;2.00;95.50
12819;DHT22;6474;53.474;9.894;2024-01-15T02:56:08;2.00;95.50
12819;DHT22;6474;53.474;9.894;2024-01-15T02:58:38;2.10;95.50
12819;DHT22;6474;53.474;9.894;2024-01-15T03:01:06;2.10;95.50
12819;DHT22;6474;53.474;9.894;2024-01-15T03:03:34;2.10;95.40
12819;DHT22;6474;53.474;9.894;2024-01-15T03:06:03;2.10;95.50
12819;DHT22;6474;53.474;9.894;2024-01-15T03:08:31;2.10;95.50
12819;DHT22;6474;53.474;9.894;2024-01-15T03:10:59;2.10;95.40
12819;DHT22;6474;53.474;9.894;2024-01-15T03:13:26;2.00;95.30
12819;DHT22;6474;53.474;9.894;2024-01-15T03:15:56;2.00;95.30
12819;DHT22;6474;53.474;9.894;2024-01-15T03:18:24;1.90;95.30
12819;DHT22;6474;53.474;9.894;2024-01-15T03:20:52;1.90;95.40
12819;DHT22;6474;53.474;9.894;2024-01-15T03:23:20;2.00;95.50
12819;DHT22;6474;53.474;9.894;2024-01-15T03:25:48;2.00;95.80
12819;DHT22;6474;53.474;9.894;2024-01-15T03:28:16;2.00;95.50
12819;DHT22;6474;53.474;9.894;2024-01-15T03:30:44;2.00;95.50
12819;DHT22;6474;53.474;9.894;2024-01-15T03:33:13;2.00;95.50
12819;DHT22;6474;53.474;9.894;2024-01-15T03:35:41;2.00;95.50
12819;DHT22;6474;53.474;9.894;2024-01-15T03:38:09;2.00;95.50
12819;DHT22;6474;53.474;9.894;2024-01-15T03:40:37;2.10;95.50
12819;DHT22;6474;53.474;9.894;2024-01-15T03:43:05;2.10;95.40
12819;DHT22;6474;53.474;9.894;2024-01-15T03:45:33;2.10;95.40
12819;DHT22;6474;53.474;9.894;2024-01-15T03:48:01;2.10;95.30
12819;DHT22;6474;53.474;9.894;2024-01-15T03:50:31;2.10;95.30
12819;DHT22;6474;53.474;9.894;2024-01-15T03:52:59;2.00;95.10
12819;DHT22;6474;53.474;9.894;2024-01-15T03:55:27;2.00;95.00
12819;DHT22;6474;53.474;9.894;2024-01-15T03:57:55;2.00;94.90
12819;DHT22;6474;53.474;9.894;2024-01-15T04:00:23;1.90;94.90
12819;DHT22;6474;53.474;9.894;2024-01-15T04:02:51;1.90;94.90
12819;DHT22;6474;53.474;9.894;2024-01-15T04:05:19;1.90;95.00
12819;DHT22;6474;53.474;9.894;2024-01-15T04:07:48;1.90;95.00
12819;DHT22;6474;53.474;9.894;2024-01-15T04:10:16;1.90;95.00
12819;DHT22;6474;53.474;9.894;2024-01-15T04:12:44;1.90;95.00
12819;DHT22;6474;53.474;9.894;2024-01-15T04:15:13;1.90;95.10
12819;DHT22;6474;53.474;9.894;2024-01-15T04:17:41;1.90;95.10
12819;DHT22;6474;53.474;9.894;2024-01-15T04:20:10;1.90;95.20
12819;DHT22;6474;53.474;9.894;2024-01-15T04:22:38;1.90;95.20
12819;DHT22;6474;53.474;9.894;2024-01-15T04:25:08;1.90;95.20
12819;DHT22;6474;53.474;9.894;2024-01-15T04:27:35;2.00;95.20
12819;DHT22;6474;53.474;9.894;2024-01-15T04:30:04;1.90;95.10
12819;DHT22;6474;53.474;9.894;2024-01-15T04:32:33;1.90;95.00
12819;DHT22;6474;53.474;9.894;2024-01-15T04:35:01;1.90;94.90
12819;DHT22;6474;53.474;9.894;2024-01-15T04:37:29;1.80;94.80
12819;DHT22;6474;53.474;9.894;2024-01-15T04:39:57;1.80;94.80
12819;DHT22;6474;53.474;9.894;2024-01-15T04:42:26;1.80;94.90
12819;DHT22;6474;53.474;9.894;2024-01-15T04:44:54;1.80;95.00
12819;DHT22;6474;53.474;9.894;2024-01-15T04:47:22;1.80;95.10
12819;DHT22;6474;53.474;9.894;2024-01-15T04:49:50;1.90;95.10
12819;DHT22;6474;53.474;9.894;2024-01-15T04:52:17;1.80;95.00
12819;DHT22;6474;53.474;9.894;2024-01-15T04:54:45;1.80;94.90
12819;DHT22;6474;53.474;9.894;2024-01-15T04:57:13;1.80;94.80
12819;DHT22;6474;53.474;9.894;2024-01-15T04:59:42;1.70;94.70
12819;DHT22;6474;53.474;9.894;2024-01-15T05:02:10;1.70;94.70
12819;DHT22;6474;53.474;9.894;2024-01-15T05:04:38;1.70;94.80
12819;DHT22;6474;53.474;9.894;2024-01-15T05:07:06;1.70;94.90
12819;DHT22;6474;53.474;9.894;2024-01-15T05:09:35;1.70;95.00
12819;DHT22;6474;53.474;9.894;2024-01-15T05:12:03;1.70;95.00
12819;DHT22;6474;53.474;9.894;2024-01-15T05:14:31;1.70;94.90
12819;DHT22;6474;53.474;9.894;2024-01-15T05:17:00;1.70;94.90
12819;DHT22;6474;53.474;9.894;2024-01-15T05:19:28;1.70;94.90
12819;DHT22;6474;53.474;9.894;2024-01-15T05:21:56;1.70;94.90
12819;DHT22;6474;53.474;9.894;2024-01-15T05:24:24;1.70;95.00
12819;DHT22;6474;53.474;9.894;2024-01-15T05:26:53;1.70;95.00
12819;DHT22;6474;53.474;9.894;2024-01-15T05:29:21;1.70;95.10
12819;DHT22;6474;53.474;9.894;2024-01-15T05:31:48;1.70;95.10
12819;DHT22;6474;53.474;9.894;2024-01-15T05:34:18;1.80;95.10
12819;DHT22;6474;53.474;9.894;2024-01-15T05:36:46;1.80;95.10
12819;DHT22;6474;53.474;9.894;2024-01-15T05:39:14;1.80;95.10
12819;DHT22;6474;53.474;9.894;2024-01-15T05:41:42;1.80;95.10
12819;DHT22;6474;53.474;9.894;2024-01-15T05:44:10;1.90;95.20
12819;DHT22;6474;53.474;9.894;2024-01-15T05:46:38;1.90;95.20
12819;DHT22;6474;53.474;9.894;2024-01-15T05:49:05;1.90;95.20
12819;DHT22;6474;53.474;9.894;2024-01-15T05:51:35;1.90;95.20
12819;DHT22;6474;53.474;9.894;2024-01-15T05:54:03;2.00;95.20
12819;DHT22;6474;53.474;9.894;2024-01-15T05:56:31;2.00;95.20
12819;DHT22;6474;53.474;9.894;2024-01-15T05:58:59;2.00;95.20
12819;DHT22;6474;53.474;9.894;2024-01-15T06:01:27;2.00;95.20
12819;DHT22;6474;53.474;9.894;2024-01-15T06:03:55;2.00;95.20
12819;DHT22;6474;53.474;9.894;2024-01-15T06:06:23;2.00;95.20
12819;DHT22;6474;53.474;9.894;2024-01-15T06:08:52;2.00;95.10
12819;DHT22;6474;53.474;9.894;2024-01-15T06:11:20;2.00;95.10
12819;DHT22;6474;53.474;9.894;2024-01-15T06:13:48;2.00;95.00
12819;DHT22;6474;53.474;9.894;2024-01-15T06:16:16;2.00;95.00
12819;DHT22;6474;53.474;9.894;2024-01-15T06:18:45;2.00;95.00
12819;DHT22;6474;53.474;9.894;2024-01-15T06:21:13;2.00;95.00
12819;DHT22;6474;53.474;9.894;2024-01-15T06:23:43;1.90;94.90
12819;DHT22;6474;53.474;9.894;2024-01-15T06:26:13;1.90;95.00
12819;DHT22;6474;53.474;9.894;2024-01-15T06:28:42;1.90;95.00
12819;DHT22;6474;53.474;9.894;2024-01-15T06:31:10;1.90;95.00
12819;DHT22;6474;53.474;9.894;2024-01-15T06:33:38;1.90;95.10
12819;DHT22;6474;53.474;9.894;2024-01-15T06:36:06;1.90;95.10
12819;DHT22;6474;53.474;9.894;2024-01-15T06:38:34;1.90;95.10
12819;DHT22;6474;53.474;9.894;2024-01-15T06:41:03;2.00;95.10
12819;DHT22;6474;53.474;9.894;2024-01-15T06:43:32;1.90;95.00
12819;DHT22;6474;53.474;9.894;2024-01-15T06:46:00;1.90;95.00
12819;DHT22;6474;53.474;9.894;2024-01-15T06:48:33;1.90;95.00
12819;DHT22;6474;53.474;9.894;2024-01-15T06:51:01;1.90;95.00
12819;DHT22;6474;53.474;9.894;2024-01-15T06:53:29;1.90;95.00
12819;DHT22;6474;53.474;9.894;2024-01-15T06:55:56;1.90;95.00
12819;DHT22;6474;53.474;9.894;2024-01-15T06:58:24;1.80;94.90
12819;DHT22;6474;53.474;9.894;2024-01-15T07:00:53;1.90;95.00
12819;DHT22;6474;53.474;9.894;2024-01-15T07:03:21;1.80;95.00
12819;DHT22;6474;53.474;9.894;2024-01-15T07:05:49;1.80;95.00
12819;DHT22;6474;53.474;9.894;2024-01-15T07:08:17;1.80;95.00
12819;DHT22;6474;53.474;9.894;2024-01-15T07:10:45;1.80;95.00
12819;DHT22;6474;53.474;9.894;2024-01-15T07:13:13;1.80;95.00
12819;DHT22;6474;53.474;9.894;2024-01-15T07:15:40;1.80;95.00
12819;DHT22;6474;53.474;9.894;2024-01-15T07:18:10;1.80;95.00
12819;DHT22;6474;53.474;9.894;2024-01-15T07:20:38;1.80;95.00
12819;DHT22;6474;53.474;9.894;2024-01-15T07:23:05;1.80;95.00
12819;DHT22;6474;53.474;9.894;2024-01-15T07:25:34;1.80;95.10
12819;DHT22;6474;53.474;9.894;2024-01-15T07:28:01;1.80;95.10
12819;DHT22;6474;53.474;9.894;2024-01-15T07:30:30;1.80;95.10
12819;DHT22;6474;53.474;9.894;2024-01-15T07:32:58;1.90;95.20
12819;DHT22;6474;53.474;9.894;2024-01-15T07:35:27;1.90;95.20
12819;DHT22;6474;53.474;9.894;2024-01-15T07:37:55;1.90;95.20
12819;DHT22;6474;53.474;9.894;2024-01-15T07:40:23;1.90;95.20
12819;DHT22;6474;53.474;9.894;2024-01-15T07:42:51;1.90;95.20
12819;DHT22;6474;53.474;9.894;2024-01-15T07:45:19;2.00;95.20
12819;DHT22;6474;53.474;9.894;2024-01-15T07:47:47;2.00;95.20
12819;DHT22;6474;53.474;9.894;2024-01-15T07:50:15;2.00;95.20
12819;DHT22;6474;53.474;9.894;2024-01-15T07:52:45;2.00;95.10
12819;DHT22;6474;53.474;9.894;2024-01-15T07:55:13;2.00;95.10
12819;DHT22;6474;53.474;9.894;2024-01-15T07:57:40;2.00;95.10
12819;DHT22;6474;53.474;9.894;2024-01-15T08:00:10;2.00;95.10
12819;DHT22;6474;53.474;9.894;2024-01-15T08:02:38;2.00;95.00
12819;DHT22;6474;53.474;9.894;2024-01-15T08:05:06;2.00;95.00
12819;DHT22;6474;53.474;9.894;2024-01-15T08:07:34;2.00;95.00
12819;DHT22;6474;53.474;9.894;2024-01-15T08:10:03;2.00;95.00
12819;DHT22;6474;53.474;9.894;2024-01-15T08:12:31;2.00;95.10
12819;DHT22;6474;53.474;9.894;2024-01-15T08:14:59;2.00;95.10
12819;DHT22;6474;53.474;9.894;2024-01-15T08:17:27;2.00;95.10
12819;DHT22;6474;53.474;9.894;2024-01-15T08:19:55;2.00;95.10
12819;DHT22;6474;53.474;9.894;2024-01-15T08:22:23;2.00;95.10
12819;DHT22;6474;53.474;9.894;2024-01-15T08:24:51;2.00;95.10
12819;DHT22;6474;53.474;9.894;2024-01-15T08:27:23;2.00;95.10
12819;DHT22;6474;53.474;9.894;2024-01-15T08:29:51;2.00;95.20
12819;DHT22;6474;53.474;9.894;2024-01-15T08:32:19;2.00;95.20
12819;DHT22;6474;53.474;9.894;2024-01-15T08:34:47;2.00;95.20
12819;DHT22;6474;53.474;9.894;2024-01-15T08:37:18;2.00;95.20
12819;DHT22;6474;53.474;9.894;2024-01-15T08:39:46;2.00;95.20
12819;DHT22;6474;53.474;9.894;2024-01-15T08:42:17;2.00;95.20
12819;DHT22;6474;53.474;9.894;2024-01-15T08:44:47;2.00;95.20
12819;DHT22;6474;53.474;9.894;2024-01-15T08:47:15;2.00;95.20
12819;DHT22;6474;53.474;9.894;2024-01-15T08:49:43;2.00;95.20
12819;DHT22;6474;53.474;9.894;2024-01-15T08:52:12;2.00;95.30
12819;DHT22;6474;53.474;9.894;2024-01-15T08:54:41;2.00;95.30
12819;DHT22;6474;53.474;9.894;2024-01-15T08:57:09;2.00;95.30
12819;DHT22;6474;53.474;9.894;2024-01-15T08:59:38;2.00;95.30
12819;DHT22;6474;53.474;9.894;2024-01-15T09:02:07;2.00;95.30
12819;DHT22;6474;53.474;9.894;2024-01-15T09:04:35;2.00;95.30
12819;DHT22;6474;53.474;9.894;2024-01-15T09:07:03;2.00;95.30
12819;DHT22;6474;53.474;9.894;2024-01-15T09:09:31;2.00;95.40
12819;DHT22;6474;53.474;9.894;2024-01-15T09:11:59;2.00;95.30
12819;DHT22;6474;53.474;9.894;2024-01-15T09:14:26;2.10;95.40
12819;DHT22;6474;53.474;9.894;2024-01-15T09:17:04;2.10;95.40
12819;DHT22;6474;53.474;9.894;2024-01-15T09:19:33;2.10;95.40
12819;DHT22;6474;53.474;9.894;2024-01-15T09:22:01;2.10;95.40
12819;DHT22;6474;53.474;9.894;2024-01-15T09:24:29;2.20;95.40
12819;DHT22;6474;53.474;9.894;2024-01-15T09:26:57;2.20;95.40
12819;DHT22;6474;53.474;9.894;2024-01-15T09:29:25;2.20;95.50
12819;DHT22;6474;53.474;9.894;2024-01-15T09:31:53;2.30;95.50
12819;DHT22;6474;53.474;9.894;2024-01-15T09:34:21;2.30;95.50
12819;DHT22;6474;53.474;9.894;2024-01-15T09:36:50;2.30;95.40
12819;DHT22;6474;53.474;9.894;2024-01-15T09:39:18;2.30;95.40
12819;DHT22;6474;53.474;9.894;2024-01-15T09:41:47;2.30;95.40
12819;DHT22;6474;53.474;9.894;2024-01-15T09:44:16;2.30;95.40
12819;DHT22;6474;53.474;9.894;2024-01-15T09:46:45;2.30;95.40
12819;DHT22;6474;53.474;9.894;2024-01-15T09:49:16;2.30;95.40
12819;DHT22;6474;53.474;9.894;2024-01-15T09:51:44;2.20;95.40
12819;DHT22;6474;53.474;9.894;2024-01-15T09:54:23;2.30;95.50
12819;DHT22;6474;53.474;9.894;2024-01-15T09:56:51;2.30;95.60
12819;DHT22;6474;53.474;9.894;2024-01-15T09:59:19;2.30;95.60
12819;DHT22;6474;53.474;9.894;2024-01-15T10:01:47;2.40;95.70
12819;DHT22;6474;53.474;9.894;2024-01-15T10:04:18;2.40;95.70
12819;DHT22;6474;53.474;9.894;2024-01-15T10:06:46;2.40;95.60
12819;DHT22;6474;53.474;9.894;2024-01-15T10:09:15;2.40;95.60
12819;DHT22;6474;53.474;9.894;2024-01-15T10:11:45;2.50;95.60
12819;DHT22;6474;53.474;9.894;2024-01-15T10:14:13;2.50;95.60
12819;DHT22;6474;53.474;9.894;2024-01-15T10:16:41;2.50;95.60
12819;DHT22;6474;53.474;9.894;2024-01-15T10:19:09;2.40;95.50
12819;DHT22;6474;53.474;9.894;2024-01-15T10:21:37;2.40;95.40
12819;DHT22;6474;53.474;9.894;2024-01-15T10:24:06;2.40;95.40
12819;DHT22;6474;53.474;9.894;2024-01-15T10:26:34;2.30;95.30
12819;DHT22;6474;53.474;9.894;2024-01-15T10:29:03;2.30;95.30
12819;DHT22;6474;53.474;9.894;2024-01-15T10:31:31;2.20;95.40
12819;DHT22;6474;53.474;9.894;2024-01-15T10:34:10;2.20;95.40
12819;DHT22;6474;53.474;9.894;2024-01-15T10:36:41;2.20;95.40
12819;DHT22;6474;53.474;9.894;2024-01-15T10:39:09;2.20;95.40
12819;DHT22;6474;53.474;9.894;2024-01-15T10:41:38;2.10;95.40
12819;DHT22;6474;53.474;9.894;2024-01-15T10:44:08;2.10;95.40
12819;DHT22;6474;53.474;9.894;2024-01-15T10:46:36;2.10;95.40
12819;DHT22;6474;53.474;9.894;2024-01-15T10:49:04;2.10;95.40
12819;DHT22;6474;53.474;9.894;2024-01-15T10:51:33;2.10;95.60
12819;DHT22;6474;53.474;9.894;2024-01-15T10:54:01;2.10;95.50
12819;DHT22;6474;53.474;9.894;2024-01-15T10:56:30;2.00;95.40
12819;DHT22;6474;53.474;9.894;2024-01-15T10:58:59;2.00;95.50
12819;DHT22;6474;53.474;9.894;2024-01-15T11:01:30;2.00;95.80
12819;DHT22;6474;53.474;9.894;2024-01-15T11:03:58;2.00;95.50
12819;DHT22;6474;53.474;9.894;2024-01-15T11:06:27;2.00;95.50
12819;DHT22;6474;53.474;9.894;2024-01-15T11:08:56;2.00;95.50
12819;DHT22;6474;53.474;9.894;2024-01-15T11:11:25;2.00;95.40
12819;DHT22;6474;53.474;9.894;2024-01-15T11:13:53;1.90;95.60
12819;DHT22;6474;53.474;9.894;2024-01-15T11:16:23;1.90;95.30
12819;DHT22;6474;53.474;9.894;2024-01-15T11:19:05;1.90;95.30
12819;DHT22;6474;53.474;9.894;2024-01-15T11:21:42;1.90;95.40
12819;DHT22;6474;53.474;9.894;2024-01-15T11:24:10;1.80;95.30
12819;DHT22;6474;53.474;9.894;2024-01-15T11:26:58;1.80;95.70
12819;DHT22;6474;53.474;9.894;2024-01-15T11:29:30;1.80;95.40
12819;DHT22;6474;53.474;9.894;2024-01-15T11:32:01;1.80;95.50
12819;DHT22;6474;53.474;9.894;2024-01-15T11:34:56;1.80;95.50
12819;DHT22;6474;53.474;9.894;2024-01-15T11:37:56;1.80;95.50
12819;DHT22;6474;53.474;9.894;2024-01-15T11:40:18;1.80;95.50
12819;DHT22;6474;53.474;9.894;2024-01-15T11:42:47;1.80;95.50
12819;DHT22;6474;53.474;9.894;2024-01-15T11:45:18;1.80;95.50
12819;DHT22;6474;53.474;9.894;2024-01-15T11:48:08;1.80;95.50
12819;DHT22;6474;53.474;9.894;2024-01-15T11:50:40;1.80;95.50
12819;DHT22;6474;53.474;9.894;2024-01-15T11:53:33;1.90;95.50
12819;DHT22;6474;53.474;9.894;2024-01-15T11:56:09;1.90;95.60
12819;DHT22;6474;53.474;9.894;2024-01-15T11:58:38;1.90;95.60
12819;DHT22;6474;53.474;9.894;2024-01-15T12:01:06;1.90;95.50
12819;DHT22;6474;53.474;9.894;2024-01-15T12:03:34;1.90;95.50
12819;DHT22;6474;53.474;9.894;2024-01-15T12:06:05;1.90;95.50
12819;DHT22;6474;53.474;9.894;2024-01-15T12:08:33;1.80;95.50
12819;DHT22;6474;53.474;9.894;2024-01-15T12:13:34;1.80;95.50
12819;DHT22;6474;53.474;9.894;2024-01-15T12:16:02;1.80;95.50
12819;DHT22;6474;53.474;9.894;2024-01-15T12:18:30;1.80;95.50
12819;DHT22;6474;53.474;9.894;2024-01-15T12:20:59;1.80;95.50
12819;DHT22;6474;53.474;9.894;2024-01-15T12:23:28;1.80;95.60
12819;DHT22;6474;53.474;9.894;2024-01-15T12:25:56;1.80;95.50
12819;DHT22;6474;53.474;9.894;2024-01-15T12:28:27;1.80;95.50
12819;DHT22;6474;53.474;9.894;2024-01-15T12:30:55;1.80;95.50
12819;DHT22;6474;53.474;9.894;2024-01-15T12:33:23;1.90;95.70
12819;DHT22;6474;53.474;9.894;2024-01-15T12:35:53;1.80;95.60
12819;DHT22;6474;53.474;9.894;2024-01-15T12:38:23;1.90;95.60
12819;DHT22;6474;53.474;9.894;2024-01-15T12:40:53;1.90;95.60
12819;DHT22;6474;53.474;9.894;2024-01-15T12:43:21;1.90;95.60
12819;DHT22;6474;53.474;9.894;2024-01-15T12:45:50;1.90;95.60
12819;DHT22;6474;53.474;9.894;2024-01-15T12:48:19;1.90;95.70
12819;DHT22;6474;53.474;9.894;2024-01-15T12:50:47;1.90;95.70
12819;DHT22;6474;53.474;9.894;2024-01-15T12:53:15;2.00;95.80
12819;DHT22;6474;53.474;9.894;2024-01-15T12:55:44;2.00;95.70
12819;DHT22;6474;53.474;9.894;2024-01-15T12:58:13;2.00;95.70
12819;DHT22;6474;53.474;9.894;2024-01-15T13:00:44;2.00;95.60
12819;DHT22;6474;53.474;9.894;2024-01-15T13:03:13;2.00;95.60
12819;DHT22;6474;53.474;9.894;2024-01-15T13:05:41;2.00;95.70
12819;DHT22;6474;53.474;9.894;2024-01-15T13:08:09;2.00;95.70
12819;DHT22;6474;53.474;9.894;2024-01-15T13:10:39;2.00;95.80
12819;DHT22;6474;53.474;9.894;2024-01-15T13:13:08;2.00;95.80
12819;DHT22;6474;53.474;9.894;2024-01-15T13:15:38;2.00;95.70
12819;DHT22;6474;53.474;9.894;2024-01-15T13:18:06;2.10;95.70
12819;DHT22;6474;53.474;9.894;2024-01-15T13:20:35;2.10;95.70
12819;DHT22;6474;53.474;9.894;2024-01-15T13:23:04;2.00;95.60
12819;DHT22;6474;53.474;9.894;2024-01-15T13:25:32;2.00;95.60
12819;DHT22;6474;53.474;9.894;2024-01-15T13:28:02;2.00;95.60
12819;DHT22;6474;53.474;9.894;2024-01-15T13:30:32;2.00;95.60
12819;DHT22;6474;53.474;9.894;2024-01-15T13:33:01;2.00;95.60
12819;DHT22;6474;53.474;9.894;2024-01-15T13:35:31;2.00;95.60
12819;DHT22;6474;53.474;9.894;2024-01-15T13:37:59;2.00;95.60
12819;DHT22;6474;53.474;9.894;2024-01-15T13:40:28;1.90;95.60
12819;DHT22;6474;53.474;9.894;2024-01-15T13:42:55;2.00;95.60
12819;DHT22;6474;53.474;9.894;2024-01-15T13:45:24;1.90;95.60
12819;DHT22;6474;53.474;9.894;2024-01-15T13:47:51;2.00;95.60
12819;DHT22;6474;53.474;9.894;2024-01-15T13:50:21;1.90;95.50
12819;DHT22;6474;53.474;9.894;2024-01-15T13:52:51;1.90;95.60
12819;DHT22;6474;53.474;9.894;2024-01-15T13:55:19;1.90;95.60
12819;DHT22;6474;53.474;9.894;2024-01-15T13:57:47;2.00;95.60
12819;DHT22;6474;53.474;9.894;2024-01-15T14:00:16;1.90;95.50
12819;DHT22;6474;53.474;9.894;2024-01-15T14:02:47;2.00;95.60
12819;DHT22;6474;53.474;9.894;2024-01-15T14:05:15;2.00;95.60
12819;DHT22;6474;53.474;9.894;2024-01-15T14:07:44;1.90;95.50
12819;DHT22;6474;53.474;9.894;2024-01-15T14:10:12;2.00;95.60
12819;DHT22;6474;53.474;9.894;2024-01-15T14:12:40;1.90;95.50
12819;DHT22;6474;53.474;9.894;2024-01-15T14:15:08;1.90;95.50
12819;DHT22;6474;53.474;9.894;2024-01-15T14:17:37;1.90;95.50
12819;DHT22;6474;53.474;9.894;2024-01-15T14:20:06;1.90;95.50
12819;DHT22;6474;53.474;9.894;2024-01-15T14:22:36;1.90;95.50
12819;DHT22;6474;53.474;9.894;2024-01-15T14:25:06;1.90;95.40
12819;DHT22;6474;53.474;9.894;2024-01-15T14:27:34;1.90;95.50
12819;DHT22;6474;53.474;9.894;2024-01-15T14:30:03;1.90;95.40
12819;DHT22;6474;53.474;9.894;2024-01-15T14:32:32;1.80;95.40
12819;DHT22;6474;53.474;9.894;2024-01-15T14:35:00;1.90;95.50
12819;DHT22;6474;53.474;9.894;2024-01-15T14:37:30;1.80;95.40
12819;DHT22;6474;53.474;9.894;2024-01-15T14:39:58;1.90;95.50
12819;DHT22;6474;53.474;9.894;2024-01-15T14:42:27;1.80;95.50
12819;DHT22;6474;53.474;9.894;2024-01-15T14:44:55;1.80;95.50
12819;DHT22;6474;53.474;9.894;2024-01-15T14:47:23;1.80;95.50
12819;DHT22;6474;53.474;9.894;2024-01-15T14:49:51;1.90;95.50
12819;DHT22;6474;53.474;9.894;2024-01-15T14:52:19;1.80;95.30
12819;DHT22;6474;53.474;9.894;2024-01-15T14:54:47;1.80;95.30
12819;DHT22;6474;53.474;9.894;2024-01-15T14:57:15;1.80;95.10
12819;DHT22;6474;53.474;9.894;2024-01-15T14:59:44;1.70;95.10
12819;DHT22;6474;53.474;9.894;2024-01-15T15:02:12;1.60;95.00
12819;DHT22;6474;53.474;9.894;2024-01-15T15:04:41;1.60;95.00
12819;DHT22;6474;53.474;9.894;2024-01-15T15:07:14;1.60;95.00
12819;DHT22;6474;53.474;9.894;2024-01-15T15:09:41;1.60;95.00
12819;DHT22;6474;53.474;9.894;2024-01-15T15:12:09;1.50;95.00
12819;DHT22;6474;53.474;9.894;2024-01-15T15:14:37;1.50;95.00
12819;DHT22;6474;53.474;9.894;2024-01-15T15:17:23;1.50;95.00
12819;DHT22;6474;53.474;9.894;2024-01-15T15:19:51;1.40;94.90
12819;DHT22;6474;53.474;9.894;2024-01-15T15:22:20;1.40;94.90
12819;DHT22;6474;53.474;9.894;2024-01-15T15:24:48;1.30;94.80
12819;DHT22;6474;53.474;9.894;2024-01-15T15:27:16;1.30;94.80
12819;DHT22;6474;53.474;9.894;2024-01-15T15:29:44;1.20;94.80
12819;DHT22;6474;53.474;9.894;2024-01-15T15:32:12;1.20;94.90
12819;DHT22;6474;53.474;9.894;2024-01-15T15:34:41;1.20;95.00
12819;DHT22;6474;53.474;9.894;2024-01-15T15:37:09;1.20;95.10
12819;DHT22;6474;53.474;9.894;2024-01-15T15:39:37;1.20;95.20
12819;DHT22;6474;53.474;9.894;2024-01-15T15:42:05;1.20;95.20
12819;DHT22;6474;53.474;9.894;2024-01-15T15:44:33;1.30;95.20
12819;DHT22;6474;53.474;9.894;2024-01-15T15:47:01;1.30;95.30
12819;DHT22;6474;53.474;9.894;2024-01-15T15:49:29;1.30;95.30
12819;DHT22;6474;53.474;9.894;2024-01-15T15:51:58;1.30;95.30
12819;DHT22;6474;53.474;9.894;2024-01-15T15:54:27;1.30;95.30
12819;DHT22;6474;53.474;9.894;2024-01-15T15:56:55;1.30;95.20
12819;DHT22;6474;53.474;9.894;2024-01-15T15:59:23;1.40;95.30
12819;DHT22;6474;53.474;9.894;2024-01-15T16:01:52;1.30;95.30
12819;DHT22;6474;53.474;9.894;2024-01-15T16:04:20;1.30;95.20
12819;DHT22;6474;53.474;9.894;2024-01-15T16:06:48;1.30;95.10
12819;DHT22;6474;53.474;9.894;2024-01-15T16:09:18;1.30;95.20
12819;DHT22;6474;53.474;9.894;2024-01-15T16:11:46;1.30;95.10
12819;DHT22;6474;53.474;9.894;2024-01-15T16:14:14;1.30;95.20